Rechercher aéroport 
image banner adimage banner adimage banner ad
image banner ad

KRAL - Riverside Muni

Situé à Riverside, United States

ICAO - RAL, IATA - RAL

Données fournies par Airmate  

Information générale

Coordonnées: N33°57'7" W117°26'42"
Élévation : 819 feet MSL.
Variation magnétique : 14° East
Voir autres Aéroports à California

Données opérationnelles

Special qualification required
Heure actuelle UTC:
Heure actuelle locale:
Météo
METAR: KRAL 251253Z AUTO 27003KT 10SM CLR 18/16 A2997 RMK AO2 SLP133 T01830156
Voir NOTAMs / SUP AIP / TFR affectant cet aéroport [VIEW]
Fréquences de communication: [VIEW]

Pistes:

Identifiant RWYQFULongueur (ft)Largeur (ft)SurfaceLDA (ft)
09103°5401100ASPH
27283°5401100ASPH
16179°285050ASPH
34359°285050ASPH

Coordonnées de l'aéroport

Adresse: Riverside United States

Autres services d'aviation

Écoles de pilotage

California Aviation Services, Inc.

California Aviation Services, Inc.

Atp Flight School (800-All-Atps)

Atp Flight School (800-All-Atps)
info@allatps.com+1(800)255-2877

Riverside Flight Academy

Riverside Flight Academy

Western Helicopters

Western Helicopters

Nextgen Flight Academy

Nextgen Flight Academy

Alliance International Aviation

Alliance International Aviation
office@aiaflight.com+1(951)354-0747

Vue satellite de KRAL